createdAt,value
2019-05-30T00:00:24.965Z,0.80
2019-05-30T00:02:53.996Z,0.70
2019-05-30T00:05:22.917Z,0.90
2019-05-30T00:07:51.775Z,0.90
2019-05-30T00:10:20.615Z,0.90
2019-05-30T00:12:49.374Z,0.80
2019-05-30T00:15:18.121Z,0.80
2019-05-30T00:17:46.874Z,0.90
2019-05-30T00:20:15.666Z,0.83
2019-05-30T00:22:44.486Z,0.90
2019-05-30T00:25:13.238Z,0.80
2019-05-30T00:27:41.986Z,0.90
2019-05-30T00:30:23.937Z,0.80
2019-05-30T00:32:41.709Z,0.80
2019-05-30T00:35:10.477Z,0.90
2019-05-30T00:37:39.248Z,0.77
2019-05-30T00:40:08.109Z,1.00
2019-05-30T00:42:36.856Z,1.00
2019-05-30T00:45:17.897Z,0.90
2019-05-30T00:47:36.496Z,0.80
2019-05-30T00:50:06.683Z,0.90
2019-05-30T00:52:35.648Z,0.90
2019-05-30T00:55:04.776Z,0.67
2019-05-30T00:57:33.612Z,0.90
2019-05-30T01:00:03.049Z,0.77
2019-05-30T01:02:31.976Z,1.00
2019-05-30T01:05:00.983Z,0.77
2019-05-30T01:07:30.352Z,0.87
2019-05-30T01:09:59.225Z,0.73
2019-05-30T01:12:28.058Z,0.90
2019-05-30T01:14:56.929Z,0.80
2019-05-30T01:17:25.795Z,0.80
2019-05-30T01:19:54.559Z,0.87
2019-05-30T01:22:23.304Z,0.80
2019-05-30T01:24:52.087Z,0.80
2019-05-30T01:27:20.918Z,0.87
2019-05-30T01:29:49.681Z,1.00
2019-05-30T01:32:30.626Z,0.90
2019-05-30T01:34:59.882Z,0.83
2019-05-30T01:37:28.724Z,0.80
2019-05-30T01:39:57.725Z,1.00
2019-05-30T01:42:26.616Z,0.90
2019-05-30T01:44:55.615Z,0.90
2019-05-30T01:47:24.394Z,0.80
2019-05-30T01:49:53.148Z,0.70
2019-05-30T01:52:22.005Z,0.90
2019-05-30T01:54:50.783Z,1.00
2019-05-30T01:57:19.567Z,0.90
2019-05-30T01:59:48.381Z,0.90
2019-05-30T02:02:17.138Z,0.90
2019-05-30T02:04:45.907Z,0.80
2019-05-30T02:07:16.616Z,0.77
2019-05-30T02:09:45.382Z,0.90
2019-05-30T02:12:14.244Z,0.83
2019-05-30T02:14:42.996Z,0.70
2019-05-30T02:17:12.179Z,0.80
2019-05-30T02:19:40.916Z,0.93
2019-05-30T02:22:10.060Z,0.80
2019-05-30T02:24:38.998Z,0.83
2019-05-30T02:27:08.331Z,0.90
2019-05-30T02:29:37.223Z,0.67
2019-05-30T02:32:07.028Z,0.80
2019-05-30T02:34:36.039Z,0.80
2019-05-30T02:37:06.058Z,0.90
2019-05-30T02:39:35.334Z,0.80
2019-05-30T02:42:23.354Z,0.70
2019-05-30T02:44:52.545Z,0.80
2019-05-30T02:47:22.508Z,0.80
2019-05-30T02:49:51.463Z,1.07
2019-05-30T02:52:20.235Z,0.87
2019-05-30T02:54:48.979Z,0.90
2019-05-30T02:57:17.742Z,0.83
2019-05-30T02:59:46.506Z,0.80
2019-05-30T03:02:17.643Z,0.87
2019-05-30T03:04:45.773Z,0.90
2019-05-30T03:07:14.592Z,0.67
2019-05-30T03:09:43.326Z,0.80
2019-05-30T03:12:13.361Z,0.80
2019-05-30T03:14:42.314Z,0.90
2019-05-30T03:17:12.635Z,0.70
2019-05-30T03:19:41.631Z,0.80
2019-05-30T03:22:12.190Z,0.87
2019-05-30T03:24:40.868Z,0.90
2019-05-30T03:27:11.662Z,0.90
2019-05-30T03:29:40.172Z,0.70
2019-05-30T03:32:49.082Z,0.90
2019-05-30T03:34:39.437Z,1.27
2019-05-30T03:37:16.740Z,1.13
2019-05-30T03:39:38.700Z,1.60
2019-05-30T03:42:08.966Z,1.53
2019-05-30T03:44:38.835Z,1.30
2019-05-30T03:47:11.101Z,1.30
2019-05-30T03:49:41.376Z,1.40
2019-05-30T03:52:12.943Z,1.43
2019-05-30T03:54:40.604Z,1.23
2019-05-30T03:57:20.110Z,1.60
2019-05-30T03:59:55.907Z,1.40
2019-05-30T04:02:59.580Z,1.70
2019-05-30T04:05:32.668Z,1.80
2019-05-30T04:08:01.535Z,1.83
2019-05-30T04:10:36.006Z,1.43
2019-05-30T04:13:25.400Z,1.60
2019-05-30T04:15:54.156Z,1.70
2019-05-30T04:18:22.906Z,1.90
2019-05-30T04:20:51.674Z,1.77
2019-05-30T04:23:20.444Z,1.50
2019-05-30T04:25:49.252Z,2.10
2019-05-30T04:28:18.753Z,1.53
2019-05-30T04:30:47.639Z,2.00
2019-05-30T04:33:29.119Z,1.70
2019-05-30T04:35:47.013Z,1.80
2019-05-30T04:38:17.140Z,1.97
2019-05-30T04:40:46.258Z,2.07
2019-05-30T04:43:15.519Z,2.10
2019-05-30T04:45:44.662Z,2.07
2019-05-30T04:48:14.113Z,1.90
2019-05-30T04:50:43.017Z,2.17
2019-05-30T04:53:12.258Z,2.20
2019-05-30T04:55:41.073Z,2.23
2019-05-30T04:58:10.987Z,2.10
2019-05-30T05:00:40.381Z,2.30
2019-05-30T05:03:09.136Z,2.00
2019-05-30T05:05:37.961Z,2.10
2019-05-30T05:08:06.761Z,2.20
2019-05-30T05:10:35.573Z,2.30
2019-05-30T05:13:04.478Z,2.60
2019-05-30T05:15:33.313Z,2.33
2019-05-30T05:18:02.068Z,2.20
2019-05-30T05:20:30.859Z,2.20
2019-05-30T05:22:59.617Z,2.37
2019-05-30T05:25:28.372Z,2.20
2019-05-30T05:27:57.132Z,2.87
2019-05-30T05:30:25.957Z,2.20
2019-05-30T05:32:54.696Z,2.80
2019-05-30T05:35:23.461Z,2.27
2019-05-30T05:37:52.196Z,2.40
2019-05-30T05:40:24.279Z,2.77
2019-05-30T05:42:53.419Z,2.50
2019-05-30T05:45:22.847Z,2.70
2019-05-30T05:47:51.716Z,2.80
2019-05-30T05:50:20.545Z,2.73
2019-05-30T05:52:49.371Z,2.90
2019-05-30T05:55:18.754Z,2.57
2019-05-30T05:57:47.599Z,3.00
2019-05-30T06:00:16.885Z,2.77
2019-05-30T06:02:45.831Z,2.97
2019-05-30T06:05:15.907Z,3.30
2019-05-30T06:07:44.909Z,2.83
2019-05-30T06:10:13.722Z,2.90
2019-05-30T06:12:42.567Z,2.73
2019-05-30T06:15:11.307Z,2.73
2019-05-30T06:17:40.235Z,3.07
2019-05-30T06:20:09.032Z,2.90
2019-05-30T06:22:37.887Z,3.00
2019-05-30T06:25:06.769Z,2.60
2019-05-30T06:27:35.675Z,2.93
2019-05-30T06:30:05.067Z,2.73
2019-05-30T06:32:33.841Z,3.00
2019-05-30T06:35:02.703Z,2.70
2019-05-30T06:37:31.529Z,2.70
2019-05-30T06:40:00.405Z,2.33
2019-05-30T06:42:30.314Z,2.60
2019-05-30T06:44:59.308Z,2.50
2019-05-30T06:47:28.506Z,2.80
2019-05-30T06:49:57.339Z,2.63
2019-05-30T06:52:27.089Z,2.60
2019-05-30T06:54:56.026Z,2.93
2019-05-30T06:57:25.247Z,2.60
2019-05-30T06:59:54.122Z,2.47
2019-05-30T07:02:24.185Z,2.57
2019-05-30T07:04:54.050Z,2.67
2019-05-30T07:07:23.866Z,2.30
2019-05-30T07:09:53.618Z,2.77
2019-05-30T07:12:22.932Z,2.70
2019-05-30T07:14:51.896Z,2.50
2019-05-30T07:17:20.639Z,2.47
2019-05-30T07:19:49.499Z,2.63
2019-05-30T07:22:18.235Z,2.33
2019-05-30T07:24:46.992Z,2.27
2019-05-30T07:27:15.834Z,2.23
2019-05-30T07:29:44.705Z,2.30
2019-05-30T07:32:13.655Z,2.73
2019-05-30T07:34:45.757Z,2.60
2019-05-30T07:37:13.127Z,2.80
2019-05-30T07:39:41.919Z,2.23
2019-05-30T07:42:10.683Z,2.63
2019-05-30T07:44:39.521Z,2.20
2019-05-30T07:47:08.269Z,2.43
2019-05-30T07:49:37.009Z,2.60
2019-05-30T07:52:05.778Z,2.43
2019-05-30T07:54:35.157Z,2.57
2019-05-30T07:57:04.203Z,2.67
2019-05-30T07:59:33.042Z,2.30
2019-05-30T08:02:01.817Z,2.13
2019-05-30T08:04:32.506Z,2.20
2019-05-30T08:07:01.053Z,2.57
2019-05-30T08:09:30.820Z,2.30
2019-05-30T08:11:59.850Z,2.47
2019-05-30T08:14:29.008Z,2.10
2019-05-30T08:16:57.932Z,2.60
2019-05-30T08:19:27.745Z,2.23
2019-05-30T08:21:56.628Z,2.23
2019-05-30T08:24:25.472Z,2.47
2019-05-30T08:26:54.227Z,2.27
2019-05-30T08:29:23.131Z,2.17
2019-05-30T08:31:51.958Z,2.47
2019-05-30T08:34:20.739Z,2.23
2019-05-30T08:36:49.550Z,2.00
2019-05-30T08:39:18.299Z,2.60
2019-05-30T08:41:47.069Z,2.10
2019-05-30T08:44:15.892Z,2.20
2019-05-30T08:46:44.681Z,2.70
2019-05-30T08:49:13.439Z,2.20
2019-05-30T08:51:42.226Z,2.30
2019-05-30T08:54:13.784Z,2.13
2019-05-30T08:56:41.527Z,2.10
2019-05-30T08:59:10.289Z,2.20
2019-05-30T09:01:40.454Z,2.50
2019-05-30T09:04:09.516Z,2.00
2019-05-30T09:06:38.358Z,2.30
2019-05-30T09:09:07.508Z,2.20
2019-05-30T09:11:37.691Z,1.93
2019-05-30T09:14:06.846Z,2.10
2019-05-30T09:16:35.613Z,1.97
2019-05-30T09:19:04.376Z,2.30
2019-05-30T09:21:33.166Z,1.97
2019-05-30T09:24:02.016Z,2.40
2019-05-30T09:26:30.944Z,2.00
2019-05-30T09:28:59.685Z,1.87
2019-05-30T09:31:28.451Z,2.10
2019-05-30T09:33:57.323Z,2.13
2019-05-30T09:36:26.228Z,2.30
2019-05-30T09:38:55.070Z,2.13
2019-05-30T09:41:23.834Z,1.97
2019-05-30T09:43:52.706Z,1.90
2019-05-30T09:46:21.530Z,2.20
2019-05-30T09:48:51.730Z,2.07
2019-05-30T09:51:20.842Z,2.17
2019-05-30T09:53:50.451Z,2.00
2019-05-30T09:56:19.342Z,2.20
2019-05-30T09:58:48.191Z,2.00
2019-05-30T10:01:16.973Z,1.77
2019-05-30T10:03:46.485Z,2.00
2019-05-30T10:06:28.428Z,2.13
2019-05-30T10:08:47.685Z,2.00
2019-05-30T10:11:16.551Z,2.00
2019-05-30T10:13:47.951Z,1.90
2019-05-30T10:16:17.462Z,1.70
2019-05-30T10:18:47.373Z,2.00
2019-05-30T10:21:16.904Z,1.90
2019-05-30T10:23:47.549Z,1.97
2019-05-30T10:26:16.394Z,2.00
2019-05-30T10:28:46.066Z,2.10
2019-05-30T10:31:15.705Z,2.00
2019-05-30T10:33:45.933Z,2.10
2019-05-30T10:36:15.050Z,1.70
2019-05-30T10:38:43.881Z,1.90
2019-05-30T10:41:12.696Z,2.23
2019-05-30T10:43:41.460Z,1.87
2019-05-30T10:46:10.298Z,2.00
2019-05-30T10:48:39.167Z,2.00
2019-05-30T10:51:07.922Z,2.00
2019-05-30T10:53:37.793Z,1.73
2019-05-30T10:56:06.710Z,2.10
2019-05-30T10:58:35.482Z,1.80
2019-05-30T11:01:04.252Z,1.80
2019-05-30T11:03:33.025Z,1.80
2019-05-30T11:06:29.916Z,1.77
2019-05-30T11:08:58.927Z,1.90
2019-05-30T11:11:27.719Z,1.57
2019-05-30T11:13:57.299Z,1.80
2019-05-30T11:16:26.334Z,1.70
2019-05-30T11:18:56.205Z,1.70
2019-05-30T11:21:25.293Z,1.83
2019-05-30T11:23:54.437Z,1.90
2019-05-30T11:26:23.291Z,1.80
2019-05-30T11:28:52.633Z,1.80
2019-05-30T11:31:21.579Z,1.60
2019-05-30T11:33:50.780Z,1.60
2019-05-30T11:36:19.769Z,1.50
2019-05-30T11:38:49.103Z,1.77
2019-05-30T11:41:18.080Z,1.63
2019-05-30T11:43:46.856Z,1.53
2019-05-30T11:46:15.714Z,1.73
2019-05-30T11:48:44.635Z,1.70
2019-05-30T11:51:13.469Z,1.70
2019-05-30T11:53:42.250Z,1.93
2019-05-30T11:56:11.652Z,1.90
2019-05-30T11:58:40.493Z,1.87
2019-05-30T12:01:09.437Z,1.83
2019-05-30T12:03:38.172Z,1.80
2019-05-30T12:06:07.010Z,1.70
2019-05-30T12:08:35.774Z,1.70
2019-05-30T12:11:04.545Z,1.70
2019-05-30T12:13:33.314Z,1.90
2019-05-30T12:16:02.075Z,1.50
2019-05-30T12:18:30.933Z,1.60
2019-05-30T12:20:59.847Z,1.80
2019-05-30T12:23:28.741Z,2.17
2019-05-30T12:25:58.065Z,1.60
2019-05-30T12:28:27.018Z,1.60
2019-05-30T12:31:01.145Z,1.87
2019-05-30T12:33:26.338Z,1.77
2019-05-30T12:35:56.362Z,1.57
2019-05-30T12:38:25.322Z,1.80
2019-05-30T12:40:54.720Z,1.70
2019-05-30T12:43:23.813Z,1.70
2019-05-30T12:45:52.883Z,1.90
2019-05-30T12:48:21.848Z,1.80
2019-05-30T12:50:50.755Z,1.50
2019-05-30T12:53:19.607Z,1.83
2019-05-30T12:55:48.374Z,1.57
2019-05-30T12:58:17.136Z,1.90
2019-05-30T13:00:46.026Z,1.83
2019-05-30T13:03:14.943Z,1.53
2019-05-30T13:05:43.719Z,1.80
2019-05-30T13:08:21.110Z,1.90
2019-05-30T13:10:43.331Z,1.60
2019-05-30T13:13:12.087Z,1.63
2019-05-30T13:15:40.844Z,1.87
2019-05-30T13:18:09.823Z,1.90
2019-05-30T13:20:38.621Z,1.40
2019-05-30T13:23:07.551Z,1.77
2019-05-30T13:25:36.302Z,1.97
2019-05-30T13:28:08.127Z,1.70
2019-05-30T13:30:35.773Z,1.40
2019-05-30T13:33:04.939Z,1.80
2019-05-30T13:35:33.965Z,1.90
2019-05-30T13:38:03.133Z,1.33
2019-05-30T13:40:32.025Z,1.50
2019-05-30T13:43:01.890Z,1.50
2019-05-30T13:45:30.928Z,1.70
2019-05-30T13:48:00.353Z,1.43
2019-05-30T13:50:29.338Z,1.63
2019-05-30T13:52:58.890Z,1.57
2019-05-30T13:55:28.341Z,1.60
2019-05-30T13:57:57.248Z,1.60
2019-05-30T14:00:26.171Z,1.57
2019-05-30T14:02:54.989Z,1.57
2019-05-30T14:05:23.730Z,1.57
2019-05-30T14:07:52.591Z,1.30
2019-05-30T14:10:21.419Z,1.50
2019-05-30T14:12:50.235Z,1.50
2019-05-30T14:15:19.106Z,1.40
2019-05-30T14:17:47.875Z,1.40
2019-05-30T14:20:16.672Z,1.70
2019-05-30T14:22:45.547Z,1.60
2019-05-30T14:25:14.543Z,1.60
2019-05-30T14:27:43.475Z,1.47
2019-05-30T14:30:13.069Z,1.53
2019-05-30T14:32:42.114Z,1.57
2019-05-30T14:35:13.347Z,1.53
2019-05-30T14:37:41.599Z,1.60
2019-05-30T14:40:11.002Z,1.30
2019-05-30T14:42:40.225Z,1.43
2019-05-30T14:45:10.385Z,1.20
2019-05-30T14:47:39.662Z,1.23
2019-05-30T14:50:08.950Z,1.30
2019-05-30T14:52:37.795Z,1.50
2019-05-30T14:55:06.797Z,1.47
2019-05-30T14:57:35.663Z,1.30
2019-05-30T15:00:05.265Z,1.33
2019-05-30T15:02:34.151Z,1.30
2019-05-30T15:05:03.201Z,1.57
2019-05-30T15:07:31.962Z,1.30
2019-05-30T15:10:00.731Z,1.40
2019-05-30T15:12:29.536Z,1.30
2019-05-30T15:14:58.352Z,1.40
2019-05-30T15:17:29.436Z,1.27
2019-05-30T15:19:58.283Z,1.20
2019-05-30T15:22:27.167Z,1.30
2019-05-30T15:24:56.059Z,1.37
2019-05-30T15:27:24.917Z,1.57
2019-05-30T15:29:53.755Z,1.33
2019-05-30T15:32:22.529Z,1.30
2019-05-30T15:34:51.447Z,1.43
2019-05-30T15:37:20.292Z,1.20
2019-05-30T15:39:49.081Z,1.10
2019-05-30T15:42:17.952Z,1.30
2019-05-30T15:44:46.742Z,1.30
2019-05-30T15:47:16.185Z,1.27
2019-05-30T15:49:45.161Z,1.20
2019-05-30T15:52:14.895Z,1.20
2019-05-30T15:54:43.953Z,1.37
2019-05-30T15:57:13.361Z,1.40
2019-05-30T15:59:42.261Z,1.20
2019-05-30T16:02:11.923Z,1.40
2019-05-30T16:04:40.789Z,1.20
2019-05-30T16:07:10.536Z,1.20
2019-05-30T16:09:47.116Z,1.20
2019-05-30T16:12:11.000Z,1.30
2019-05-30T16:14:39.919Z,1.30
2019-05-30T16:17:08.699Z,1.20
2019-05-30T16:19:37.494Z,1.20
2019-05-30T16:22:06.429Z,1.30
2019-05-30T16:24:35.498Z,1.33
2019-05-30T16:27:04.283Z,1.27
2019-05-30T16:29:33.080Z,1.20
2019-05-30T16:32:01.947Z,1.20
2019-05-30T16:34:32.749Z,1.23
2019-05-30T16:37:01.319Z,1.20
2019-05-30T16:39:30.152Z,1.13
2019-05-30T16:41:58.914Z,1.10
2019-05-30T16:44:27.689Z,1.30
2019-05-30T16:46:56.544Z,1.10
2019-05-30T16:49:25.353Z,1.20
2019-05-30T16:51:54.197Z,1.23
2019-05-30T16:54:23.439Z,1.23
2019-05-30T16:56:52.337Z,1.13
2019-05-30T16:59:21.129Z,1.30
2019-05-30T17:01:57.921Z,1.40
2019-05-30T17:04:20.990Z,1.30
2019-05-30T17:06:49.817Z,1.40
2019-05-30T17:09:27.416Z,1.10
2019-05-30T17:12:00.661Z,1.00
2019-05-30T17:14:31.280Z,1.00
2019-05-30T17:17:02.821Z,0.97
2019-05-30T17:19:30.772Z,1.20
2019-05-30T17:22:03.007Z,1.07
2019-05-30T17:24:31.947Z,1.00
2019-05-30T17:27:00.939Z,1.03
2019-05-30T17:29:29.710Z,1.20
2019-05-30T17:31:58.562Z,1.10
2019-05-30T17:34:28.216Z,1.20
2019-05-30T17:36:57.290Z,1.20
2019-05-30T17:39:26.697Z,1.10
2019-05-30T17:41:55.774Z,1.00
2019-05-30T17:44:25.154Z,1.20
2019-05-30T17:46:54.714Z,1.17
2019-05-30T17:49:23.736Z,0.97
2019-05-30T17:51:52.522Z,0.83
2019-05-30T17:54:21.775Z,1.00
2019-05-30T17:56:50.683Z,1.10
2019-05-30T17:59:20.177Z,0.90
2019-05-30T18:01:49.121Z,1.10
2019-05-30T18:04:17.957Z,1.00
2019-05-30T18:06:46.740Z,1.10
2019-05-30T18:09:15.619Z,1.03
2019-05-30T18:11:44.373Z,1.13
2019-05-30T18:14:13.246Z,1.10
2019-05-30T18:16:42.140Z,1.00
2019-05-30T18:19:10.986Z,0.90
2019-05-30T18:21:39.914Z,1.10
2019-05-30T18:24:08.773Z,1.00
2019-05-30T18:26:37.617Z,1.40
2019-05-30T18:29:06.526Z,1.10
2019-05-30T18:31:35.328Z,1.20
2019-05-30T18:34:04.090Z,1.20
2019-05-30T18:36:32.866Z,1.17
2019-05-30T18:39:02.050Z,1.10
2019-05-30T18:41:30.961Z,1.23
2019-05-30T18:43:59.797Z,1.00
2019-05-30T18:46:29.138Z,1.10
2019-05-30T18:48:58.012Z,1.10
2019-05-30T18:51:26.781Z,1.00
2019-05-30T18:53:55.735Z,1.10
2019-05-30T18:56:24.621Z,0.90
2019-05-30T18:58:53.560Z,0.93
2019-05-30T19:01:22.417Z,0.90
2019-05-30T19:03:51.258Z,1.00
2019-05-30T19:06:20.533Z,1.00
2019-05-30T19:08:49.284Z,1.10
2019-05-30T19:11:27.165Z,1.10
2019-05-30T19:13:48.563Z,1.00
2019-05-30T19:16:17.586Z,1.00
2019-05-30T19:18:46.495Z,1.00
2019-05-30T19:21:15.278Z,1.00
2019-05-30T19:23:44.060Z,1.13
2019-05-30T19:26:12.816Z,1.03
2019-05-30T19:28:41.636Z,1.00
2019-05-30T19:31:10.405Z,0.80
2019-05-30T19:33:39.255Z,1.03
2019-05-30T19:36:08.133Z,0.97
2019-05-30T19:38:44.011Z,1.00
2019-05-30T19:41:12.881Z,0.90
2019-05-30T19:43:41.718Z,0.90
2019-05-30T19:46:13.183Z,0.90
2019-05-30T19:48:41.035Z,0.97
2019-05-30T19:51:09.888Z,0.97
2019-05-30T19:53:39.151Z,1.00
2019-05-30T19:56:08.074Z,1.10
2019-05-30T19:58:37.671Z,0.90
2019-05-30T20:01:06.665Z,1.10
2019-05-30T20:03:42.705Z,1.10
2019-05-30T20:06:05.894Z,1.00
2019-05-30T20:08:47.051Z,1.10
2019-05-30T20:11:05.208Z,0.80
2019-05-30T20:13:35.016Z,0.93
2019-05-30T20:16:04.339Z,1.20
2019-05-30T20:18:33.568Z,1.10
2019-05-30T20:21:02.521Z,1.07
2019-05-30T20:23:45.471Z,1.00
2019-05-30T20:26:01.852Z,1.00
2019-05-30T20:28:30.666Z,0.67
2019-05-30T20:30:59.444Z,0.93
2019-05-30T20:33:28.206Z,0.90
2019-05-30T20:35:56.992Z,1.20
2019-05-30T20:38:25.814Z,1.00
2019-05-30T20:40:54.598Z,0.90
2019-05-30T20:43:23.920Z,0.97
2019-05-30T20:45:52.718Z,0.97
2019-05-30T20:48:21.533Z,1.00
2019-05-30T20:50:50.444Z,1.10
2019-05-30T20:53:20.547Z,1.10
2019-05-30T20:55:49.430Z,1.03
2019-05-30T20:58:18.160Z,0.70
2019-05-30T21:00:47.434Z,1.00
2019-05-30T21:03:16.198Z,1.00
2019-05-30T21:05:46.049Z,0.90
2019-05-30T21:08:15.023Z,0.80
2019-05-30T21:10:43.892Z,0.73
2019-05-30T21:13:12.669Z,0.90
2019-05-30T21:15:41.830Z,1.10
2019-05-30T21:18:10.828Z,0.87
2019-05-30T21:20:40.024Z,0.90
2019-05-30T21:23:08.995Z,0.90
2019-05-30T21:25:38.934Z,1.10
2019-05-30T21:28:07.776Z,1.00
2019-05-30T21:30:36.787Z,1.00
2019-05-30T21:33:05.757Z,0.90
2019-05-30T21:35:34.512Z,0.90
2019-05-30T21:38:03.276Z,0.87
2019-05-30T21:40:32.053Z,0.90
2019-05-30T21:43:06.482Z,1.00
2019-05-30T21:45:31.403Z,1.00
2019-05-30T21:48:00.258Z,1.00
2019-05-30T21:50:29.079Z,1.10
2019-05-30T21:52:57.865Z,1.20
2019-05-30T21:55:26.599Z,1.10
2019-05-30T21:57:55.392Z,1.20
2019-05-30T22:00:51.032Z,1.20
2019-05-30T22:03:19.933Z,1.20
2019-05-30T22:05:49.872Z,1.10
2019-05-30T22:08:19.337Z,1.07
2019-05-30T22:10:48.169Z,0.97
2019-05-30T22:13:16.925Z,1.00
2019-05-30T22:15:46.013Z,1.07
2019-05-30T22:18:14.843Z,1.17
2019-05-30T22:20:43.862Z,1.10
2019-05-30T22:23:12.881Z,1.00
2019-05-30T22:25:42.120Z,1.30
2019-05-30T22:28:11.034Z,1.10
2019-05-30T22:30:39.934Z,1.33
2019-05-30T22:33:08.672Z,1.20
2019-05-30T22:35:37.425Z,1.10
2019-05-30T22:38:06.179Z,1.23
2019-05-30T22:40:34.931Z,1.10
2019-05-30T22:43:03.686Z,1.20
2019-05-30T22:45:32.445Z,1.10
2019-05-30T22:48:01.378Z,1.10
2019-05-30T22:50:30.103Z,0.90
2019-05-30T22:52:58.874Z,1.20
2019-05-30T22:55:27.627Z,1.13
2019-05-30T22:57:56.815Z,1.20
2019-05-30T23:00:25.642Z,0.90
2019-05-30T23:02:54.379Z,0.97
2019-05-30T23:05:23.131Z,1.40
2019-05-30T23:07:51.900Z,1.10
2019-05-30T23:10:20.767Z,1.20
2019-05-30T23:12:49.738Z,1.10
2019-05-30T23:15:18.569Z,1.10
2019-05-30T23:17:48.296Z,0.90
2019-05-30T23:20:17.173Z,1.00
2019-05-30T23:22:46.797Z,0.90
2019-05-30T23:25:15.639Z,1.00
2019-05-30T23:27:44.481Z,1.20
2019-05-30T23:30:13.281Z,0.77
2019-05-30T23:32:42.074Z,1.00
2019-05-30T23:35:10.827Z,1.30
2019-05-30T23:37:39.691Z,1.10
2019-05-30T23:40:08.737Z,1.10
2019-05-30T23:42:37.510Z,1.17
2019-05-30T23:45:06.377Z,1.03
2019-05-30T23:47:35.245Z,1.20
2019-05-30T23:50:04.350Z,1.00
2019-05-30T23:52:33.181Z,1.00
2019-05-30T23:55:02.486Z,0.93
2019-05-30T23:57:31.379Z,1.00
